Time;durP1;ratioP1;P1;durP2;ratioP2;P2;SDS_P1;SDS_P2;PMS_P1;PMS_P2;Temp;Humidity;BMP_temperature;BMP_pressure;BME280_temperature;BME280_humidity;BME280_pressure;Samples;Min_cycle;Max_cycle;Signal;HPM_P1;HPM_P2
2022/12/04 00:02:22;;;;;;;;;44.50;42.50;;;;;1.12;68.73;101952.75;5040614;28;11553;-68
2022/12/04 00:04:49;;;;;;;;;59.25;41.75;;;;;1.12;69.59;101950.09;5035530;28;11552;-68
2022/12/04 00:07:15;;;;;;;;;45.50;33.50;;;;;1.10;69.25;101949.38;5051620;28;11548;-67
2022/12/04 00:09:41;;;;;;;;;42.00;37.75;;;;;1.13;69.71;101945.63;5049064;28;11653;-67
2022/12/04 00:12:08;;;;;;;;;46.75;36.25;;;;;1.13;69.92;101932.38;5030369;28;11543;-68
2022/12/04 00:14:34;;;;;;;;;42.50;34.50;;;;;1.13;69.92;101945.63;5043257;28;11532;-67
2022/12/04 00:17:21;;;;;;;;;43.75;36.50;;;;;1.15;69.99;101941.09;5051776;28;11547;-68
2022/12/04 00:19:47;;;;;;;;;45.50;33.75;;;;;1.15;69.38;101941.94;5051482;28;12358;-67
2022/12/04 00:22:13;;;;;;;;;42.25;35.50;;;;;1.11;69.29;101939.59;5050446;28;11537;-68
2022/12/04 00:24:40;;;;;;;;;41.00;33.25;;;;;1.05;69.57;101940.88;5048399;28;13167;-68
2022/12/04 00:27:06;;;;;;;;;44.00;40.00;;;;;1.07;70.15;101938.13;5043050;28;11494;-68
2022/12/04 00:29:33;;;;;;;;;48.50;36.50;;;;;1.07;69.79;101948.72;5046218;28;11642;-68
2022/12/04 00:31:59;;;;;;;;;50.75;43.75;;;;;1.02;69.51;101934.94;5042299;28;11602;-68
2022/12/04 00:34:27;;;;;;;;;43.25;36.75;;;;;1.05;70.33;101942.66;5049779;28;11535;-66
2022/12/04 00:36:53;;;;;;;;;51.75;43.50;;;;;1.10;69.79;101938.75;5045026;28;11502;-68
2022/12/04 00:39:20;;;;;;;;;48.00;38.50;;;;;1.11;70.25;101934.31;5039522;28;11567;-65
2022/12/04 00:41:46;;;;;;;;;58.25;41.00;;;;;1.10;70.48;101943.22;5050684;28;11531;-66
2022/12/04 00:44:12;;;;;;;;;46.25;37.75;;;;;1.13;70.12;101940.34;5050502;28;11678;-67
2022/12/04 00:46:39;;;;;;;;;47.00;38.50;;;;;1.10;69.16;101937.91;5050802;28;11689;-68
2022/12/04 00:49:05;;;;;;;;;50.25;33.75;;;;;1.13;70.15;101941.19;5037804;28;12437;-67
2022/12/04 00:51:31;;;;;;;;;47.75;40.00;;;;;1.18;70.01;101936.44;5042419;28;12298;-68
2022/12/04 00:53:58;;;;;;;;;56.25;39.75;;;;;1.20;69.42;101938.97;5033103;28;11691;-67
2022/12/04 00:56:26;;;;;;;;;55.75;40.00;;;;;1.10;69.51;101937.91;5030070;28;11675;-66
2022/12/04 00:58:55;;;;;;;;;59.00;43.75;;;;;0.99;69.87;101931.53;5049524;28;11527;-65
2022/12/04 01:01:22;;;;;;;;;19.00;8.50;;;;;0.95;70.54;101922.09;5041590;28;11535;-66
2022/12/04 01:03:49;;;;;;;;;53.75;45.50;;;;;0.93;70.64;101926.69;5047117;28;11586;-65
2022/12/04 01:06:30;;;;;;;;;48.75;43.75;;;;;0.94;70.70;101923.06;5046358;28;11524;-66
2022/12/04 01:08:58;;;;;;;;;54.50;37.75;;;;;1.01;70.60;101928.78;5050373;28;11694;-66
2022/12/04 01:11:25;;;;;;;;;49.75;42.75;;;;;1.06;71.19;101918.72;5049967;28;11596;-66
2022/12/04 01:13:52;;;;;;;;;48.25;44.75;;;;;1.10;70.57;101922.84;5047483;28;11647;-66
2022/12/04 01:16:28;;;;;;;;;40.25;33.75;;;;;1.10;70.31;101922.84;5043168;28;11572;-67
2022/12/04 01:18:55;;;;;;;;;47.50;40.50;;;;;1.01;70.01;101922.63;5038968;28;11545;-65
2022/12/04 01:21:22;;;;;;;;;45.50;37.75;;;;;0.96;70.61;101913.19;5047027;28;11539;-66
2022/12/04 01:23:48;;;;;;;;;42.75;36.00;;;;;0.99;70.67;101907.69;5050247;28;11571;-66
2022/12/04 01:26:15;;;;;;;;;55.00;39.50;;;;;1.04;71.20;101922.41;5047560;28;11640;-64
2022/12/04 01:28:42;;;;;;;;;42.75;40.25;;;;;1.08;69.86;101918.59;5039310;28;11554;-65
2022/12/04 01:31:12;;;;;;;;;51.50;33.50;;;;;1.07;70.49;101917.75;5044782;28;11553;-66
2022/12/04 01:33:39;;;;;;;;;43.50;36.25;;;;;1.12;70.38;101925.38;5050878;28;11737;-66
2022/12/04 01:36:10;;;;;;;;;49.75;39.75;;;;;1.11;69.90;101921.91;5050600;28;11544;-65
2022/12/04 01:38:37;;;;;;;;;55.00;43.00;;;;;1.03;69.69;101931.34;5051554;28;11664;-66
2022/12/04 01:41:04;;;;;;;;;51.00;44.25;;;;;0.91;70.17;101920.63;5042207;28;11660;-65
2022/12/04 01:43:32;;;;;;;;;48.75;44.00;;;;;0.94;70.63;101923.06;5041813;28;11538;-66
2022/12/04 01:45:59;;;;;;;;;46.00;39.00;;;;;0.99;71.08;101922.75;5048007;28;11616;-66
2022/12/04 01:48:48;;;;;;;;;59.75;43.00;;;;;0.96;70.30;101923.78;5031716;28;11689;-65
2022/12/04 01:51:29;;;;;;;;;60.25;45.00;;;;;0.91;70.78;101923.25;5045997;28;11544;-64
2022/12/04 01:53:59;;;;;;;;;50.25;45.00;;;;;0.96;70.64;101920.28;5046681;28;11530;-66
2022/12/04 01:56:35;;;;;;;;;47.00;40.00;;;;;1.01;70.64;101918.16;5041739;28;11533;-64
2022/12/04 01:59:02;;;;;;;;;48.75;38.00;;;;;1.03;70.40;101921.56;5050181;28;11508;-66
2022/12/04 02:01:39;;;;;;;;;50.00;36.50;;;;;1.05;69.99;101910.84;5031713;28;11563;-66
2022/12/04 02:04:05;;;;;;;;;57.50;48.00;;;;;1.01;69.99;101917.31;5041627;28;11515;-66
2022/12/04 02:06:32;;;;;;;;;51.25;39.00;;;;;0.98;70.58;101908.63;5045057;28;12283;-66
2022/12/04 02:08:58;;;;;;;;;59.75;44.50;;;;;1.02;71.18;101911.94;5040725;28;11555;-65
2022/12/04 02:11:41;;;;;;;;;54.00;38.75;;;;;1.07;70.65;101911.59;5043927;28;11550;-66
2022/12/04 02:14:51;;;;;;;;;55.50;45.75;;;;;1.01;70.75;101912.88;5049798;28;12274;-66
2022/12/04 02:17:34;;;;;;;;;45.50;35.25;;;;;1.01;71.30;101917.31;4991060;28;11661;-66
2022/12/04 02:20:14;;;;;;;;;61.25;40.50;;;;;1.11;71.05;101924.53;5037658;28;11548;-66
2022/12/04 02:23:24;;;;;;;;;35.75;33.75;;;;;1.16;70.53;101922.41;5021456;28;11557;-66
2022/12/04 02:26:28;;;;;;;;;36.75;26.00;;;;;1.18;70.54;101923.16;5042035;28;11580;-65
2022/12/04 02:29:10;;;;;;;;;49.00;37.00;;;;;1.17;70.80;101926.75;5049609;28;11656;-66
2022/12/04 02:31:48;;;;;;;;;54.00;37.75;;;;;1.10;70.02;101925.50;5043405;28;11598;-67
2022/12/04 02:34:42;;;;;;;;;39.25;36.00;;;;;1.06;70.50;101916.06;5046506;28;11524;-66
2022/12/04 02:37:16;;;;;;;;;41.50;35.50;;;;;1.12;70.57;101917.44;5037467;28;11587;-66
2022/12/04 02:40:03;;;;;;;;;41.50;31.00;;;;;1.06;70.76;101916.06;5032941;28;11555;-66
2022/12/04 02:42:41;;;;;;;;;57.75;40.75;;;;;0.99;70.12;101914.78;5049540;28;11519;-65
2022/12/04 02:45:12;;;;;;;;;48.50;39.50;;;;;0.92;71.01;101913.50;5042596;28;11549;-65
2022/12/04 02:47:42;;;;;;;;;50.00;35.75;;;;;0.92;71.10;101914.34;5041013;28;12211;-65
2022/12/04 02:50:14;;;;;;;;;47.25;44.25;;;;;0.96;71.13;101915.00;5037380;28;11566;-65
2022/12/04 02:52:47;;;;;;;;;54.25;42.25;;;;;0.92;70.33;101914.34;5049666;28;11551;-65
2022/12/04 02:55:38;;;;;;;;;47.75;37.00;;;;;0.86;71.28;101916.59;5049500;28;11582;-65
2022/12/04 02:58:13;;;;;;;;;58.00;43.75;;;;;0.89;71.45;101913.72;5045832;28;11517;-68
2022/12/04 03:00:42;;;;;;;;;51.75;43.00;;;;;0.89;71.24;101911.06;5043814;28;11509;-67
2022/12/04 03:03:26;;;;;;;;;40.00;37.00;;;;;0.94;71.76;101911.63;5053011;28;11559;-66
2022/12/04 03:06:00;;;;;;;;;61.00;44.75;;;;;1.03;71.50;101903.00;5046592;28;11540;-67
2022/12/04 03:08:37;;;;;;;;;58.50;41.00;;;;;1.07;71.11;101895.69;5052840;28;11732;-66
2022/12/04 03:11:04;;;;;;;;;46.50;36.75;;;;;1.10;70.99;101900.78;5045597;28;11520;-66
2022/12/04 03:13:37;;;;;;;;;56.25;42.75;;;;;1.08;71.38;101894.75;5045593;28;11532;-64
2022/12/04 03:16:19;;;;;;;;;48.50;40.25;;;;;1.07;71.49;101890.41;5046625;28;12283;-65
2022/12/04 03:18:53;;;;;;;;;51.50;40.50;;;;;1.09;71.38;101893.78;5048982;28;11569;-65
2022/12/04 03:21:25;;;;;;;;;51.25;39.00;;;;;1.06;70.83;101894.00;5052512;28;11519;-64
2022/12/04 03:24:31;;;;;;;;;43.75;41.50;;;;;1.00;71.43;101887.31;5046103;28;11550;-65
2022/12/04 03:27:09;;;;;;;;;53.00;42.50;;;;;0.95;71.25;101886.78;4960121;28;11658;-65
2022/12/04 03:29:49;;;;;;;;;47.25;42.25;;;;;0.96;71.48;101884.03;5031309;28;11572;-65
2022/12/04 03:32:32;;;;;;;;;64.50;47.75;;;;;0.86;71.48;101882.13;5052995;28;11536;-63
2022/12/04 03:35:14;;;;;;;;;54.75;44.25;;;;;0.81;72.54;101884.22;5051718;28;11552;-64
2022/12/04 03:38:06;;;;;;;;;49.25;38.50;;;;;0.86;71.94;101876.84;5046716;28;11565;-65
2022/12/04 03:40:56;;;;;;;;;62.25;41.75;;;;;0.81;72.03;101878.94;5040887;28;11590;-66
2022/12/04 03:43:26;;;;;;;;;44.50;42.50;;;;;0.87;72.17;101878.53;5014991;28;12234;-65
2022/12/04 03:46:08;;;;;;;;;53.25;45.75;;;;;0.89;71.88;101881.91;5034873;28;11593;-66
2022/12/04 03:48:56;;;;;;;;;46.50;38.50;;;;;0.98;71.86;101870.69;5041381;28;11536;-66
2022/12/04 03:51:33;;;;;;;;;49.00;37.75;;;;;0.96;72.08;101877.88;5045420;28;11561;-66
2022/12/04 03:54:15;;;;;;;;;39.25;33.25;;;;;1.01;72.02;101873.09;5044045;28;11609;-65
2022/12/04 03:56:57;;;;;;;;;55.25;45.25;;;;;1.04;70.85;101869.41;5052024;28;11528;-66
2022/12/04 03:59:29;;;;;;;;;39.75;33.75;;;;;1.00;71.79;101874.06;5042787;28;11686;-65
2022/12/04 04:02:00;;;;;;;;;49.50;45.00;;;;;1.08;72.47;101870.88;5043571;28;11654;-66
2022/12/04 04:04:33;;;;;;;;;41.75;34.25;;;;;1.16;71.61;101869.38;5050063;28;11609;-67
2022/12/04 04:07:08;;;;;;;;;55.00;44.25;;;;;1.15;71.46;101872.16;5038657;28;11523;-67
2022/12/04 04:09:39;;;;;;;;;39.25;34.50;;;;;1.20;71.79;101870.84;5050015;28;12242;-66
2022/12/04 04:12:18;;;;;;;;;42.00;32.00;;;;;1.29;71.85;101865.84;5049122;28;11640;-66
2022/12/04 04:26:10;;;;;;;;;45.75;39.00;;;;;1.11;71.60;101876.81;5050291;28;11538;-65
2022/12/04 04:28:39;;;;;;;;;60.25;41.50;;;;;1.15;71.52;101874.81;5044682;28;11547;-65
2022/12/04 04:31:16;;;;;;;;;55.25;41.50;;;;;1.08;71.39;101868.22;5043157;28;11649;-65
2022/12/04 04:33:54;;;;;;;;;56.75;43.50;;;;;0.95;71.44;101868.22;5033937;28;11582;-65
2022/12/04 04:36:32;;;;;;;;;59.75;47.50;;;;;0.95;72.13;101871.72;5051104;28;11532;-67
2022/12/04 04:39:19;;;;;;;;;50.75;44.50;;;;;0.88;72.25;101875.75;5050984;28;11542;-65
2022/12/04 04:42:03;;;;;;;;;42.75;39.50;;;;;0.92;72.65;101869.28;5045615;28;11524;-67
2022/12/04 04:44:43;;;;;;;;;48.50;36.00;;;;;1.00;72.44;101863.44;5041356;28;11560;-66
2022/12/04 04:47:17;;;;;;;;;57.25;47.50;;;;;1.06;71.49;101868.34;5031683;28;11737;-67
2022/12/04 04:49:46;;;;;;;;;52.00;41.00;;;;;1.09;72.60;101865.44;5049725;28;11616;-66
2022/12/04 04:52:13;;;;;;;;;39.25;33.25;;;;;1.14;72.52;101870.47;5049187;28;12292;-64
2022/12/04 04:54:40;;;;;;;;;51.00;41.25;;;;;1.15;71.88;101864.19;5046201;28;11628;-66
2022/12/04 04:57:07;;;;;;;;;56.50;44.50;;;;;1.14;71.81;101871.31;5042934;28;11569;-65
2022/12/04 04:59:33;;;;;;;;;50.00;42.75;;;;;1.17;72.30;101872.88;5050862;28;12232;-66
2022/12/04 05:02:00;;;;;;;;;50.50;42.25;;;;;1.23;72.85;101869.81;5043358;28;11539;-66
2022/12/04 05:04:26;;;;;;;;;49.50;45.00;;;;;1.14;71.55;101878.41;5035457;28;11538;-66
2022/12/04 05:06:53;;;;;;;;;44.50;38.00;;;;;1.02;72.27;101877.47;5047654;28;11540;-66
2022/12/04 05:09:19;;;;;;;;;53.50;45.75;;;;;0.98;72.24;101879.47;5043123;28;11523;-65
2022/12/04 05:11:45;;;;;;;;;59.50;45.50;;;;;0.93;72.75;101881.59;5032855;28;11558;-66
2022/12/04 05:14:12;;;;;;;;;59.25;47.75;;;;;0.99;72.51;101877.66;5050403;28;11558;-65
2022/12/04 05:16:39;;;;;;;;;54.00;48.00;;;;;0.90;72.13;101876.50;5041193;28;12316;-66
2022/12/04 05:21:51;;;;;;;;;54.75;45.75;;;;;0.87;72.66;101887.31;5048153;28;11535;-66
2022/12/04 05:24:17;;;;;;;;;54.00;45.50;;;;;0.90;72.79;101879.16;5038296;28;12279;-65
2022/12/04 05:26:44;;;;;;;;;54.25;36.25;;;;;0.96;72.93;101877.88;5050341;28;12366;-65
2022/12/04 05:29:11;;;;;;;;;56.50;45.50;;;;;0.99;72.72;101881.16;5050082;28;11640;-66
2022/12/04 05:31:37;;;;;;;;;57.50;45.25;;;;;1.02;72.93;101882.78;5044228;28;11534;-66
2022/12/04 05:34:04;;;;;;;;;50.75;47.00;;;;;1.05;72.77;101887.00;5029233;28;11502;-66
2022/12/04 05:36:30;;;;;;;;;49.75;39.50;;;;;1.04;72.04;101893.25;5036207;28;11498;-66
2022/12/04 05:38:57;;;;;;;;;64.25;46.25;;;;;0.98;72.53;101884.78;5030504;28;11492;-66
2022/12/04 05:41:23;;;;;;;;;68.25;50.50;;;;;0.97;72.05;101884.88;5047280;28;11570;-66
2022/12/04 05:43:50;;;;;;;;;44.25;41.25;;;;;0.99;73.24;101888.28;5049221;28;11623;-66
2022/12/04 05:46:16;;;;;;;;;48.50;43.25;;;;;1.07;73.50;101888.59;5044306;28;11542;-66
2022/12/04 05:48:42;;;;;;;;;48.75;40.25;;;;;1.14;73.57;101889.88;5042092;28;11585;-67
2022/12/04 05:51:09;;;;;;;;;65.25;43.75;;;;;1.13;72.40;101892.59;5044702;28;11576;-67
2022/12/04 05:53:36;;;;;;;;;59.75;46.50;;;;;1.04;72.84;101886.16;5049801;28;11600;-67
2022/12/04 05:56:05;;;;;;;;;53.00;40.00;;;;;1.06;73.08;101886.06;5049395;28;11669;-67
2022/12/04 05:58:36;;;;;;;;;53.25;43.75;;;;;1.11;73.13;101887.41;5047147;28;11589;-67
2022/12/04 06:01:08;;;;;;;;;56.00;45.50;;;;;1.10;72.81;101883.09;5040874;28;11563;-65
2022/12/04 06:03:35;;;;;;;;;59.50;41.00;;;;;1.10;72.86;101887.53;5046001;28;11605;-66
2022/12/04 06:06:01;;;;;;;;;50.25;42.00;;;;;1.08;73.26;101895.59;5035656;28;11481;-66
2022/12/04 06:08:27;;;;;;;;;61.25;43.75;;;;;1.08;72.98;101886.78;5033181;28;11549;-66
2022/12/04 06:10:54;;;;;;;;;50.25;44.50;;;;;1.03;73.03;101892.41;5037275;28;11525;-66
2022/12/04 06:13:20;;;;;;;;;52.00;42.25;;;;;0.96;72.74;101891.97;5042034;28;11543;-66
2022/12/04 06:15:47;;;;;;;;;51.75;39.50;;;;;0.95;72.94;101886.78;5045340;28;11555;-66
2022/12/04 06:18:13;;;;;;;;;51.00;44.00;;;;;0.88;73.77;101894.31;5050409;28;12363;-66
2022/12/04 06:20:39;;;;;;;;;49.25;43.00;;;;;0.94;73.64;101891.25;5032019;28;11549;-66
2022/12/04 06:23:06;;;;;;;;;51.50;40.75;;;;;0.97;73.97;101892.81;5044161;28;11675;-66
2022/12/04 06:25:33;;;;;;;;;53.00;40.50;;;;;0.99;73.29;101893.56;5039967;28;11537;-66
2022/12/04 06:27:59;;;;;;;;;53.75;45.00;;;;;1.07;74.01;101888.59;5030063;28;11675;-66
2022/12/04 06:30:25;;;;;;;;;57.75;44.25;;;;;1.06;73.25;101892.22;5049498;28;11516;-66
2022/12/04 06:32:52;;;;;;;;;63.50;44.50;;;;;1.04;73.46;101891.44;5034480;28;11570;-66
2022/12/04 06:35:18;;;;;;;;;58.75;46.25;;;;;1.05;73.49;101894.94;5052960;28;11533;-67
2022/12/04 06:37:45;;;;;;;;;55.75;43.00;;;;;0.98;72.88;101892.72;5050807;28;11533;-66
2022/12/04 06:40:11;;;;;;;;;49.25;41.00;;;;;0.96;73.10;101897.28;5040829;28;11518;-67
2022/12/04 06:42:38;;;;;;;;;50.50;43.25;;;;;0.99;73.04;101893.56;5043069;28;12349;-65
2022/12/04 06:45:05;;;;;;;;;55.75;45.00;;;;;0.95;73.64;101895.59;5039469;28;11512;-65
2022/12/04 06:47:33;;;;;;;;;49.00;42.25;;;;;1.00;73.76;101895.25;5053916;28;11582;-66
2022/12/04 06:49:59;;;;;;;;;52.25;41.25;;;;;1.01;73.91;101901.41;5046707;28;11572;-64
2022/12/04 06:52:26;;;;;;;;;53.00;44.25;;;;;0.97;73.44;101887.53;5043529;28;11558;-65
2022/12/04 06:54:53;;;;;;;;;54.75;44.25;;;;;0.95;73.24;101892.94;5036135;28;11569;-66
2022/12/04 06:57:19;;;;;;;;;49.75;38.50;;;;;0.95;73.82;101886.78;5052124;28;11552;-66
2022/12/04 06:59:45;;;;;;;;;37.50;34.50;;;;;1.03;73.71;101891.56;5053581;28;11567;-66
2022/12/04 07:02:12;;;;;;;;;61.50;45.25;;;;;1.03;73.26;101883.63;5047448;28;12242;-66
2022/12/04 07:04:38;;;;;;;;;66.75;48.25;;;;;0.99;73.46;101893.56;5050032;28;11540;-65
2022/12/04 07:07:08;;;;;;;;;54.50;39.25;;;;;1.01;73.71;101891.66;5023250;28;11564;-64
2022/12/04 07:09:35;;;;;;;;;43.00;39.75;;;;;1.04;73.41;101902.06;5029257;28;11556;-65
2022/12/04 07:12:01;;;;;;;;;50.00;38.25;;;;;1.07;73.51;101885.94;5040738;28;11470;-64
2022/12/04 07:14:28;;;;;;;;;49.25;44.00;;;;;1.11;73.54;101898.03;5040349;28;11546;-65
2022/12/04 07:16:54;;;;;;;;;60.50;47.50;;;;;1.08;73.22;101886.78;5050077;28;11646;-64
2022/12/04 07:19:21;;;;;;;;;49.25;35.00;;;;;1.09;72.74;101886.66;5045366;28;11651;-65
2022/12/04 07:21:47;;;;;;;;;54.50;45.00;;;;;1.05;73.30;101892.28;5035357;28;11622;-64
2022/12/04 07:24:15;;;;;;;;;59.00;47.75;;;;;0.96;72.90;101896.44;5027329;28;11576;-65
2022/12/04 07:26:42;;;;;;;;;44.00;41.25;;;;;0.93;72.90;101900.16;5043171;28;11568;-65
2022/12/04 07:29:09;;;;;;;;;50.75;42.75;;;;;0.88;73.65;101896.97;5047453;28;11554;-66
2022/12/04 07:31:36;;;;;;;;;50.50;35.25;;;;;0.91;73.81;101890.59;5039291;28;11587;-66
2022/12/04 07:34:03;;;;;;;;;68.50;48.50;;;;;0.91;73.75;101901.22;5032773;28;11561;-66
2022/12/04 07:36:29;;;;;;;;;68.00;45.00;;;;;0.95;74.02;101897.41;5050361;28;11546;-65
2022/12/04 07:38:56;;;;;;;;;48.75;43.00;;;;;0.98;73.52;101899.84;5048762;28;11649;-65
2022/12/04 07:41:22;;;;;;;;;52.00;45.00;;;;;0.98;73.64;101906.00;5044581;28;11517;-66
2022/12/04 07:43:49;;;;;;;;;52.00;41.50;;;;;1.04;73.59;101890.59;5050565;28;11556;-65
2022/12/04 07:46:19;;;;;;;;;54.25;47.50;;;;;1.01;73.13;101901.41;5039155;28;11588;-66
2022/12/04 07:48:46;;;;;;;;;53.75;43.75;;;;;0.93;73.70;101900.16;5043317;28;11675;-65
2022/12/04 07:51:18;;;;;;;;;51.50;45.75;;;;;0.89;73.79;101903.97;5041135;28;11552;-66
2022/12/04 07:53:45;;;;;;;;;60.25;47.50;;;;;0.83;73.68;101895.59;5040986;28;11601;-65
2022/12/04 07:56:13;;;;;;;;;55.00;46.00;;;;;0.81;74.10;101903.66;5047026;28;11530;-66
2022/12/04 07:58:40;;;;;;;;;65.50;45.75;;;;;0.87;73.92;101910.31;5040884;28;11560;-65
2022/12/04 08:01:09;;;;;;;;;54.00;45.25;;;;;0.84;73.50;101906.06;5045841;28;11560;-64
2022/12/04 08:03:36;;;;;;;;;49.75;47.00;;;;;0.90;74.71;101916.28;5052281;28;11568;-65
2022/12/04 08:06:09;;;;;;;;;53.25;44.50;;;;;0.91;73.32;101917.97;5043826;28;12319;-65
2022/12/04 08:08:36;;;;;;;;;60.50;48.25;;;;;0.93;73.72;101916.06;5046283;28;11535;-65
2022/12/04 08:11:07;;;;;;;;;49.00;43.25;;;;;0.82;74.08;101915.94;5042240;28;11541;-65
2022/12/04 08:13:34;;;;;;;;;48.25;41.75;;;;;0.74;73.90;101911.16;5032243;28;11472;-65
2022/12/04 08:16:02;;;;;;;;;57.75;48.00;;;;;0.71;73.81;101921.97;5042421;28;11549;-65
2022/12/04 08:18:29;;;;;;;;;57.00;48.50;;;;;0.82;74.22;101915.09;5047255;28;11555;-65
2022/12/04 08:21:13;;;;;;;;;58.50;45.00;;;;;0.78;74.52;101921.56;5028713;28;11539;-65
2022/12/04 08:23:41;;;;;;;;;50.25;42.50;;;;;0.76;74.36;101915.50;5049741;28;11579;-65
2022/12/04 08:26:09;;;;;;;;;67.25;50.00;;;;;0.70;74.35;101922.09;5048021;28;12273;-65
2022/12/04 08:28:36;;;;;;;;;55.75;43.50;;;;;0.75;74.92;101917.31;5040158;28;12286;-65
2022/12/04 08:31:08;;;;;;;;;54.50;45.50;;;;;0.76;74.47;101921.66;5043774;28;11535;-67
2022/12/04 08:33:35;;;;;;;;;63.00;51.25;;;;;0.78;74.68;101922.41;5043799;28;11523;-65
2022/12/04 08:36:05;;;;;;;;;57.00;46.00;;;;;0.75;74.32;101933.22;5038524;28;11515;-64
2022/12/04 08:38:31;;;;;;;;;55.25;42.75;;;;;0.73;74.30;101937.78;5051287;28;12269;-65
2022/12/04 08:41:00;;;;;;;;;61.00;46.00;;;;;0.76;75.05;101942.00;5051244;28;11645;-64
2022/12/04 08:43:27;;;;;;;;;59.00;48.25;;;;;0.77;74.78;101938.41;5051444;28;11596;-65
2022/12/04 08:45:58;;;;;;;;;54.75;45.50;;;;;0.87;74.78;101942.13;5043793;28;11652;-65
2022/12/04 08:48:26;;;;;;;;;50.50;40.25;;;;;0.95;75.14;101945.97;5024948;28;11588;-64
2022/12/04 08:50:52;;;;;;;;;63.50;49.25;;;;;0.99;74.60;101943.94;5051005;28;11546;-64
2022/12/04 08:53:19;;;;;;;;;60.75;47.50;;;;;0.95;74.09;101945.97;5033507;28;11557;-63
2022/12/04 08:55:46;;;;;;;;;50.75;42.50;;;;;0.93;73.86;101937.28;5051101;28;11552;-66
2022/12/04 08:58:13;;;;;;;;;52.75;42.25;;;;;0.87;73.82;101937.69;5046789;28;11643;-65
2022/12/04 09:00:39;;;;;;;;;53.50;45.00;;;;;0.87;74.51;101948.28;5043886;28;11641;-65
2022/12/04 09:03:06;;;;;;;;;58.50;46.00;;;;;0.87;73.79;101953.59;5046753;28;11540;-65
2022/12/04 09:05:33;;;;;;;;;66.25;45.50;;;;;0.79;74.14;101950.59;5042748;28;11553;-66
2022/12/04 09:07:59;;;;;;;;;67.75;50.00;;;;;0.76;74.87;101956.09;5046890;28;11586;-66
2022/12/04 09:10:25;;;;;;;;;46.00;42.50;;;;;0.84;74.35;101947.63;5044987;28;11648;-66
2022/12/04 09:12:52;;;;;;;;;51.50;44.25;;;;;0.87;74.89;101947.44;5050474;28;11636;-66
2022/12/04 09:15:18;;;;;;;;;56.25;46.00;;;;;0.88;73.88;101957.94;5049072;28;11537;-65
2022/12/04 09:17:45;;;;;;;;;56.00;42.00;;;;;0.82;73.74;101958.34;5048734;28;12337;-65
2022/12/04 09:20:13;;;;;;;;;63.00;46.25;;;;;0.81;74.67;101961.97;5047582;28;11619;-64
2022/12/04 09:22:40;;;;;;;;;57.75;48.00;;;;;0.78;74.51;101948.06;5040373;28;11546;-66
2022/12/04 09:25:26;;;;;;;;;46.00;43.25;;;;;0.80;74.25;101944.34;5041035;28;11608;-65
2022/12/04 09:27:52;;;;;;;;;69.25;49.25;;;;;0.80;75.23;101949.66;5039382;28;11490;-64
2022/12/04 09:30:19;;;;;;;;;54.75;44.50;;;;;0.85;74.91;101952.84;5049640;28;11537;-66
2022/12/04 09:32:45;;;;;;;;;54.00;44.00;;;;;0.88;74.69;101962.38;5050480;28;11592;-66
2022/12/04 09:35:12;;;;;;;;;47.50;41.75;;;;;0.88;74.38;101960.56;5045000;28;11683;-66
2022/12/04 09:37:38;;;;;;;;;47.75;45.25;;;;;0.79;74.33;101960.34;5042271;28;11543;-66
2022/12/04 09:40:06;;;;;;;;;49.50;40.25;;;;;0.81;75.45;101961.97;5044225;28;11541;-67
2022/12/04 09:42:44;;;;;;;;;49.50;45.25;;;;;0.74;75.07;101964.16;5040773;28;11544;-66
2022/12/04 09:45:15;;;;;;;;;55.00;46.00;;;;;0.82;74.88;101955.72;5049302;28;11521;-66
2022/12/04 09:47:51;;;;;;;;;54.25;45.00;;;;;0.79;75.35;101955.06;5050662;28;11569;-66
2022/12/04 09:50:40;;;;;;;;;58.50;44.00;;;;;0.87;74.93;101961.53;5040528;28;11706;-66
2022/12/04 09:53:15;;;;;;;;;50.00;33.25;;;;;0.92;75.12;101959.41;5041778;28;11581;-65
2022/12/04 09:56:03;;;;;;;;;49.50;43.00;;;;;0.94;74.63;101954.88;5036897;28;11624;-66
2022/12/04 09:58:46;;;;;;;;;43.00;38.00;;;;;0.92;74.73;101951.47;5034189;28;11617;-65
2022/12/04 10:01:20;;;;;;;;;51.50;45.25;;;;;0.81;74.66;101947.84;5039485;28;11597;-66
2022/12/04 10:03:47;;;;;;;;;54.75;41.25;;;;;0.78;75.62;101943.63;5045752;28;12180;-65
2022/12/04 10:06:21;;;;;;;;;44.25;36.50;;;;;0.89;75.55;101940.22;5035575;28;11555;-66
2022/12/04 10:09:15;;;;;;;;;50.00;41.25;;;;;0.87;75.35;101952.75;5038402;28;12288;-66
2022/12/04 10:11:41;;;;;;;;;48.75;45.00;;;;;0.79;74.83;101934.69;5049549;28;11565;-66
2022/12/04 10:14:44;;;;;;;;;50.25;39.25;;;;;1.01;76.74;101935.88;5034759;28;11732;-66
2022/12/04 10:17:46;;;;;;;;;45.75;37.75;;;;;0.94;75.22;101936.31;5043384;28;11536;-65
2022/12/04 10:20:21;;;;;;;;;49.00;44.00;;;;;0.88;75.16;101946.47;5002369;28;11551;-65
2022/12/04 10:23:11;;;;;;;;;60.50;36.25;;;;;0.82;75.28;101937.16;5049353;28;11530;-65
2022/12/04 10:25:41;;;;;;;;;37.25;34.50;;;;;0.94;75.76;101943.41;5045087;28;11531;-65
2022/12/04 10:28:29;;;;;;;;;45.25;37.50;;;;;0.99;75.91;101947.44;5043793;28;11569;-66
2022/12/04 10:31:00;;;;;;;;;45.00;41.75;;;;;0.97;75.31;101937.88;5048349;28;11543;-65
2022/12/04 10:33:32;;;;;;;;;37.50;36.00;;;;;0.93;75.74;101939.06;5049509;28;11553;-65
2022/12/04 10:35:59;;;;;;;;;47.00;38.50;;;;;0.93;76.38;101936.41;5049322;28;11569;-66
2022/12/04 10:38:41;;;;;;;;;44.75;35.75;;;;;0.85;76.03;101936.06;5046201;28;11527;-66
2022/12/04 10:41:21;;;;;;;;;40.25;28.00;;;;;0.81;76.35;101938.13;5039316;28;11570;-66
2022/12/04 10:43:49;;;;;;;;;39.25;34.50;;;;;0.93;77.31;101939.94;5038529;28;11527;-65
2022/12/04 10:46:25;;;;;;;;;40.00;36.75;;;;;0.93;75.81;101937.28;5040769;28;11547;-66
2022/12/04 10:49:14;;;;;;;;;34.00;30.00;;;;;1.00;76.58;101932.38;5048394;28;11612;-66
2022/12/04 10:51:42;;;;;;;;;38.25;32.00;;;;;1.16;77.20;101929.53;5034433;28;11526;-66
2022/12/04 10:54:23;;;;;;;;;41.00;33.00;;;;;1.14;76.17;101929.66;5043543;28;11658;-66
2022/12/04 10:56:55;;;;;;;;;38.50;32.75;;;;;1.11;75.06;101929.84;5041617;28;11592;-67
2022/12/04 10:59:22;;;;;;;;;40.75;31.75;;;;;1.06;74.59;101923.19;5047649;28;11535;-66
2022/12/04 11:02:01;;;;;;;;;45.00;37.25;;;;;1.02;75.04;101922.53;5043365;28;11557;-65
2022/12/04 11:04:34;;;;;;;;;36.25;30.00;;;;;0.93;74.60;101924.03;5040921;28;12287;-66
2022/12/04 11:07:28;;;;;;;;;40.50;29.25;;;;;0.94;74.81;101927.53;5049415;28;11561;-66
2022/12/04 11:10:02;;;;;;;;;32.25;28.75;;;;;0.87;74.24;101929.72;5025200;28;11543;-65
2022/12/04 11:12:29;;;;;;;;;34.75;28.75;;;;;0.78;73.72;101922.41;5044609;28;11588;-66
2022/12/04 11:15:12;;;;;;;;;40.00;30.50;;;;;0.81;74.32;101914.25;5048643;28;11547;-66
2022/12/04 11:17:39;;;;;;;;;32.00;26.50;;;;;0.87;74.50;101912.97;5049312;28;11527;-65
2022/12/04 11:20:14;;;;;;;;;35.00;31.75;;;;;0.86;74.03;101924.53;5048095;28;11745;-66
2022/12/04 11:22:52;;;;;;;;;27.50;24.50;;;;;0.79;74.52;101907.34;5044477;28;11704;-66
2022/12/04 11:25:20;;;;;;;;;40.25;31.25;;;;;0.82;74.73;101902.69;5052120;28;11508;-65
2022/12/04 11:27:55;;;;;;;;;45.50;36.50;;;;;0.81;74.47;101901.00;5051216;28;11543;-66
2022/12/04 11:30:31;;;;;;;;;34.75;30.75;;;;;0.91;74.55;101899.41;5051874;28;11593;-66
2022/12/04 11:32:59;;;;;;;;;41.25;32.75;;;;;0.98;74.40;101903.34;5050591;28;12868;-65
2022/12/04 11:35:28;;;;;;;;;38.50;29.75;;;;;1.00;73.91;101897.91;5052191;28;11520;-65
2022/12/04 11:38:04;;;;;;;;;30.00;26.25;;;;;0.95;73.08;101902.69;5034754;28;12383;-65
2022/12/04 11:40:32;;;;;;;;;33.50;27.25;;;;;0.83;73.82;101890.28;5038677;28;11550;-66
2022/12/04 11:43:03;;;;;;;;;33.25;27.75;;;;;0.87;74.16;101903.22;5041270;28;11516;-66
2022/12/04 11:45:30;;;;;;;;;33.75;29.25;;;;;0.87;74.01;101892.63;5041908;28;11615;-66
2022/12/04 11:48:02;;;;;;;;;33.75;25.50;;;;;0.90;74.15;101888.91;5034712;28;12280;-66
2022/12/04 11:50:48;;;;;;;;;30.25;27.50;;;;;0.94;73.64;101896.56;5051761;28;11633;-66
2022/12/04 11:53:20;;;;;;;;;33.50;30.75;;;;;0.92;74.19;101901.09;5052059;28;11549;-65